Latest Weather Observations for Maroochydore

IDQ60901

Issued at 8:21 pm EST Friday 29 May 2015 (issued every 10 minutes, with the page automatically refreshed every 10 minutes)

About weather observations | Map of Brisbane area stations | Latest observations for Brisbane area | Other Formats
Station Details ID: 040861 Name: SUNSHINE COAST AIRPORT Lat: -26.60 Lon: 153.09 Height: 3.3 m
Data from the previous 72 hours. | See also: Recent months at Maroochydore
Date/Time
EST
Tmp

°C
App
Tmp
°C
Dew
Point
°C
Rel
Hum
%
Delta-T

°C
Wind Press
QNH
hPa
Press
MSL
hPa
Rain
since
9 am
mm
Dir
 
Spd
km/h
Gust
km/h
Spd
kts
Gust
kts
29/08:00pm 17.4 19.1 16.3 93 0.7 WNW 2 7 1 4 1022.8 - 0.0
29/07:30pm 17.7 18.2 16.6 93 0.7 W 9 9 5 5 1022.8 - 0.0
29/07:00pm 18.4 19.5 17.2 93 0.7 W 7 9 4 5 1022.7 - 0.0
29/06:30pm 19.0 20.0 17.7 92 0.8 N 9 9 5 5 1022.3 - 0.0
29/05:30pm 20.3 21.0 18.8 91 0.9 NNE 13 17 7 9 1021.8 - 0.0
29/05:00pm 20.7 21.3 18.6 88 1.3 NNE 13 15 7 8 1021.6 - 0.0
29/04:30pm 21.6 22.2 18.6 83 1.9 NNE 13 17 7 9 1021.7 - 0.0
29/04:00pm 22.4 22.5 18.4 78 2.5 NNE 15 17 8 9 1021.6 - 0.0
29/03:30pm 23.3 23.1 18.6 75 3.0 NNE 17 20 9 11 1021.1 - 0.0
29/03:00pm 23.5 22.9 18.8 75 3.0 NNE 20 24 11 13 1020.9 1020.9 0.0
29/02:30pm 24.1 24.0 18.7 72 3.4 NE 17 20 9 11 1021.0 - 0.0
29/02:00pm 24.0 23.7 18.2 70 3.6 NE 17 20 9 11 1021.2 - 0.0
29/01:00pm 22.0 22.3 17.8 77 2.6 ENE 13 15 7 8 1021.7 - 0.0
29/12:30pm 22.7 24.2 18.9 79 2.4 ENE 9 15 5 8 1022.1 - 0.0
29/12:00pm 22.5 23.0 17.4 73 3.1 ENE 11 15 6 8 1022.5 1022.5 0.0
29/11:30am 22.9 23.7 18.2 75 2.9 ENE 11 13 6 7 1022.7 - 0.0
29/11:00am 22.5 22.9 17.2 72 3.3 E 11 13 6 7 1023.2 - 0.0
29/10:30am 22.0 22.4 17.2 74 2.9 E 11 13 6 7 1023.6 - 0.0
29/09:30am 20.9 23.7 17.9 83 1.9 CALM 0 0 0 0 1024.2 - 0.0
29/09:00am 19.3 21.6 17.6 90 1.0 W 2 7 1 4 1024.5 1024.5 0.0
29/08:00am 16.5 18.5 15.9 96 0.4 CALM 0 0 0 0 1024.1 - 0.0
29/06:30am 12.8 11.8 12.3 97 0.3 W 9 11 5 6 1023.4 - 0.0
29/05:30am 12.7 11.7 12.2 97 0.3 W 9 9 5 5 1023.1 - 0.0
29/05:00am 12.8 12.4 12.3 97 0.3 WSW 6 7 3 4 1022.7 - 0.0
29/04:54am 12.8 12.2 12.3 97 0.3 W 7 9 4 5 1022.7 - 0.0
29/04:44am 12.8 11.8 12.3 97 0.3 W 9 11 5 6 1022.8 - 0.0
29/04:30am 12.7 12.1 12.2 97 0.3 W 7 7 4 4 1022.4 - 0.0
29/04:26am 12.6 11.9 12.1 97 0.3 W 7 9 4 5 1022.5 - 0.0
29/04:13am 12.7 11.7 12.2 97 0.3 W 9 11 5 6 1022.4 - 0.0
29/04:09am 12.8 11.8 12.3 97 0.3 W 9 11 5 6 1022.4 - 0.0
29/04:00am 13.0 12.6 12.5 97 0.3 W 6 7 3 4 1022.2 - 0.0
29/03:56am 13.0 12.6 12.5 97 0.3 W 6 7 3 4 1022.2 - 0.0
29/03:42am 13.0 12.5 12.5 97 0.3 W 7 9 4 5 1022.4 - 0.0
29/03:30am 12.8 11.8 12.3 97 0.3 W 9 11 5 6 1022.3 - 0.0
29/03:15am 12.9 12.5 12.4 97 0.3 WSW 6 9 3 5 1022.5 - 0.0
29/03:00am 13.2 12.7 12.7 97 0.3 W 7 9 4 5 1022.5 1022.5 0.0
29/02:30am 12.9 12.3 12.3 96 0.3 WSW 7 9 4 5 1022.8 - 0.0
29/02:00am 13.4 13.2 12.9 97 0.3 WSW 6 7 3 4 1022.7 - 0.0
29/01:59am 13.4 13.2 12.9 97 0.3 WSW 6 7 3 4 1022.7 - 0.0
29/01:52am 13.3 12.8 12.8 97 0.3 WSW 7 9 4 5 1022.9 - 0.0
29/01:42am 13.5 13.1 12.9 96 0.3 WSW 7 9 4 5 1023.1 - 0.0
29/01:30am 13.3 12.8 12.7 96 0.3 WSW 7 9 4 5 1023.0 - 0.0
29/01:19am 13.7 13.0 13.1 96 0.3 W 9 9 5 5 1023.1 - 0.0
29/12:53am 13.6 13.2 13.0 96 0.3 W 7 7 4 4 1023.3 - 0.0
29/12:40am 13.7 13.3 13.1 96 0.3 W 7 9 4 5 1023.4 - 0.0
29/12:30am 14.0 13.4 13.4 96 0.3 W 9 11 5 6 1023.4 - 0.0
 
Date/Time
EST
Tmp

°C
App
Tmp
°C
Dew
Point
°C
Rel
Hum
%
Delta-T

°C
Wind Press
QNH
hPa
Press
MSL
hPa
Rain
since
9 am
mm
Dir
 
Spd
km/h
Gust
km/h
Spd
kts
Gust
kts
28/11:49pm 13.8 13.1 13.2 96 0.3 WSW 9 9 5 5 1023.6 - 0.0
28/11:30pm 14.3 14.3 13.7 96 0.3 WSW 6 9 3 5 1023.7 - 0.0
28/11:09pm 14.0 13.7 13.4 96 0.3 W 7 9 4 5 1023.8 - 0.0
28/11:00pm 13.8 13.5 13.2 96 0.3 W 7 9 4 5 1023.7 - 0.0
28/10:30pm 13.9 13.5 13.1 95 0.4 W 7 9 4 5 1023.7 - 0.0
28/10:00pm 13.8 13.6 13.0 95 0.4 W 6 7 3 4 1024.0 - 0.0
28/09:30pm 14.1 13.8 13.3 95 0.4 WSW 7 7 4 4 1023.8 - 0.0
28/09:08pm 14.3 14.2 13.3 94 0.6 WSW 6 7 3 4 1023.9 - 0.0
28/09:00pm 14.5 14.3 13.7 95 0.4 WSW 7 9 4 5 1023.9 1023.9 0.0
28/08:56pm 14.8 14.9 14.0 95 0.4 WSW 6 9 3 5 1023.8 - 0.0
28/08:30pm 14.7 14.5 13.6 93 0.6 W 7 7 4 4 1023.8 - 0.0
28/08:01pm 15.4 16.8 14.3 93 0.6 CALM 0 0 0 0 1023.8 - 0.0
28/08:00pm 15.5 16.9 14.4 93 0.6 CALM 0 0 0 0 1023.8 - 0.0
28/07:30pm 15.5 15.6 14.0 91 0.8 WSW 6 7 3 4 1023.6 - 0.0
28/07:00pm 16.2 16.4 14.7 91 0.9 WSW 7 9 4 5 1023.5 - 0.0
28/06:30pm 16.9 17.3 15.2 90 1.0 W 7 7 4 4 1023.1 - 0.0
28/06:00pm 19.1 19.9 16.3 84 1.7 E 7 11 4 6 1022.6 1022.6 0.0
28/05:30pm 19.4 19.5 16.4 83 1.8 ENE 11 15 6 8 1022.1 - 0.0
28/05:00pm 19.8 20.3 16.6 82 1.9 ESE 9 11 5 6 1022.2 - 0.0
28/04:30pm 20.7 21.3 16.7 78 2.4 ESE 9 13 5 7 1022.0 - 0.0
28/04:00pm 21.5 21.5 17.1 76 2.7 ESE 13 19 7 10 1021.9 - 0.0
28/03:30pm 21.7 21.1 16.6 73 3.1 ESE 15 20 8 11 1021.7 - 0.0
28/03:00pm 22.0 20.9 16.3 70 3.4 E 17 20 9 11 1021.5 1021.5 0.0
28/02:30pm 22.2 21.2 16.7 71 3.4 ESE 17 20 9 11 1021.9 - 0.0
28/02:00pm 22.4 21.3 17.3 73 3.1 ESE 19 24 10 13 1021.6 - 0.0
28/01:30pm 22.6 21.3 17.3 72 3.3 ESE 20 24 11 13 1022.1 - 0.0
28/01:00pm 22.5 21.1 17.0 71 3.4 ESE 20 24 11 13 1022.2 - 0.0
28/12:30pm 22.3 20.8 16.8 71 3.4 ESE 20 24 11 13 1022.7 - 0.0
28/12:00pm 23.6 22.6 16.6 65 4.3 ESE 17 20 9 11 1023.3 1023.3 0.0
28/11:30am 23.1 22.7 17.1 69 3.7 SE 15 20 8 11 1023.6 - 0.0
28/11:00am 22.9 22.4 16.0 65 4.2 SE 13 19 7 10 1024.0 - 0.0
28/10:30am 21.9 21.7 16.6 72 3.2 S 13 19 7 10 1024.2 - 0.0
28/10:00am 21.9 21.6 16.4 71 3.3 S 13 19 7 10 1024.6 - 0.0
28/09:30am 20.9 20.1 16.1 74 2.9 S 15 20 8 11 1024.5 - 0.0
28/09:00am 18.9 18.0 15.8 82 1.8 S 15 20 8 11 1024.2 1024.2 0.0
28/08:30am 17.8 17.3 15.8 88 1.2 S 13 19 7 10 1024.1 - 0.0
28/08:00am 16.9 19.0 16.3 96 0.4 CALM 0 0 0 0 1023.8 - 0.0
28/07:30am 15.5 17.1 15.0 97 0.3 CALM 0 0 0 0 1023.7 - 0.0
28/07:00am 14.2 15.3 13.6 96 0.3 CALM 0 0 0 0 1023.6 - 0.0
28/06:30am 14.2 14.2 13.6 96 0.3 WNW 6 11 3 6 1023.3 - 0.0
28/06:00am 14.2 15.0 13.6 96 0.3 NW 2 6 1 3 1022.7 1022.7 0.0
28/05:30am 13.8 12.7 13.2 96 0.3 WNW 11 13 6 7 1022.7 - 0.0
28/05:00am 13.9 13.6 13.3 96 0.3 WNW 7 9 4 5 1022.2 - 0.0
28/04:30am 14.1 14.5 13.6 97 0.3 W 4 6 2 3 1022.2 - 0.0
28/04:00am 13.7 13.4 13.2 97 0.3 W 7 9 4 5 1022.3 - 0.0
28/03:30am 13.3 12.8 12.7 96 0.3 W 7 7 4 4 1022.3 - 0.0
28/03:00am 13.1 12.6 12.5 96 0.3 W 7 7 4 4 1022.2 1022.2 0.0
28/02:49am 12.7 12.2 12.1 96 0.3 W 6 7 3 4 1022.3 - 0.0
28/02:30am 12.6 11.8 11.8 95 0.4 W 7 7 4 4 1022.0 - 0.0
28/02:00am 13.1 12.7 12.5 96 0.3 WSW 6 7 3 4 1022.0 - 0.0
28/01:30am 13.3 13.0 12.7 96 0.3 WSW 6 7 3 4 1022.4 - 0.0
28/01:17am 13.6 13.4 13.0 96 0.3 WSW 6 7 3 4 1022.5 - 0.0
28/01:00am 14.0 13.7 13.4 96 0.3 W 7 7 4 4 1022.7 - 0.0
28/12:30am 13.9 13.7 13.1 95 0.4 W 6 7 3 4 1022.7 - 0.0
28/12:00am 14.6 14.7 13.8 95 0.4 W 6 7 3 4 1022.7 1022.7 0.0
 
Date/Time
EST
Tmp

°C
App
Tmp
°C
Dew
Point
°C
Rel
Hum
%
Delta-T

°C
Wind Press
QNH
hPa
Press
MSL
hPa
Rain
since
9 am
mm
Dir
 
Spd
km/h
Gust
km/h
Spd
kts
Gust
kts
27/11:30pm 14.9 14.5 14.1 95 0.5 WNW 9 11 5 6 1022.9 - 0.0
27/11:00pm 14.5 14.5 13.5 94 0.6 W 6 7 3 4 1022.8 - 0.0
27/10:30pm 14.8 14.9 13.8 94 0.6 W 6 7 3 4 1023.2 - 0.0
27/10:00pm 15.1 15.1 14.1 94 0.6 WSW 7 9 4 5 1023.1 - 0.0
27/09:30pm 15.1 14.7 14.1 94 0.6 WSW 9 11 5 6 1023.1 - 0.0
27/09:00pm 15.5 15.6 14.4 93 0.6 SW 7 9 4 5 1023.1 1023.1 0.0
27/08:30pm 15.9 17.4 14.6 92 0.7 CALM 0 0 0 0 1023.0 - 0.0
27/08:00pm 16.4 16.4 15.1 92 0.8 WSW 9 9 5 5 1023.1 - 0.0
27/07:30pm 17.2 17.6 15.4 89 1.1 SW 7 9 4 5 1023.1 - 0.0
27/07:00pm 19.0 19.3 16.0 83 1.8 SE 9 13 5 7 1022.7 - 0.0
27/06:31pm 19.5 19.1 16.3 82 1.9 SE 13 17 7 9 1022.3 - 0.0
27/06:30pm 19.5 19.1 16.3 82 1.9 SE 13 17 7 9 1022.3 - 0.0
27/06:15pm 19.4 19.1 16.4 83 1.8 SE 13 17 7 9 1022.4 - 0.0
27/06:00pm 19.4 19.2 16.6 84 1.7 SE 13 19 7 10 1022.1 1022.1 0.0
27/05:30pm 18.9 18.4 15.8 82 1.8 SE 13 17 7 9 1022.1 - 0.0
27/05:00pm 19.1 18.6 15.8 81 2.0 SSE 13 17 7 9 1022.1 - 0.0
27/04:30pm 20.0 19.5 16.0 78 2.4 SSE 13 19 7 10 1021.8 - 0.0
27/04:00pm 20.2 19.2 15.6 75 2.7 SE 15 20 8 11 1021.4 - 0.0
27/03:30pm 21.0 19.4 16.6 76 2.7 SE 20 26 11 14 1021.3 - 0.0
27/03:00pm 21.4 19.6 16.1 72 3.2 SE 20 30 11 16 1021.4 1021.4 0.0
27/02:30pm 21.8 19.8 15.4 67 3.8 SE 20 26 11 14 1021.4 - 0.0
27/02:00pm 22.1 20.3 15.9 68 3.7 SE 20 26 11 14 1021.6 - 0.0
27/01:30pm 22.4 20.9 16.7 70 3.5 SE 20 28 11 15 1021.7 - 0.0
27/01:00pm 22.1 20.2 16.8 72 3.2 SE 22 30 12 16 1022.1 - 0.0
27/12:30pm 21.9 20.4 16.4 71 3.3 SE 19 26 10 14 1022.5 - 0.0
27/12:00pm 22.8 21.4 16.6 68 3.8 SE 19 22 10 12 1023.1 1023.1 0.0
27/11:30am 23.1 21.6 16.2 65 4.2 SSE 19 24 10 13 1023.7 - 0.0
27/11:00am 23.0 21.5 16.3 66 4.1 SSE 19 24 10 13 1024.0 - 0.0
27/10:30am 21.8 20.0 15.6 68 3.7 S 19 24 10 13 1024.2 - 0.0
27/10:00am 21.4 19.7 15.7 70 3.4 S 19 26 10 14 1024.6 - 0.0
27/09:30am 21.4 20.1 15.7 70 3.4 S 17 22 9 12 1024.4 - 0.0
27/09:00am 20.7 19.2 15.3 71 3.2 SSW 17 24 9 13 1024.8 1024.8 0.0
27/08:30am 19.5 18.2 14.7 74 2.8 S 15 20 8 11 1024.5 - 0.0
27/08:00am 18.4 16.1 14.7 79 2.1 S 20 24 11 13 1024.3 - 0.0
27/07:30am 17.3 16.5 15.1 87 1.3 S 13 19 7 10 1024.0 - 0.0
27/07:00am 15.5 15.6 14.4 93 0.6 SW 7 11 4 6 1023.9 - 0.0
27/06:30am 15.6 15.6 14.3 92 0.7 SW 7 11 4 6 1023.5 - 0.0
27/06:00am 15.8 15.5 14.5 92 0.7 SW 9 13 5 7 1023.3 1023.3 0.0
27/05:30am 16.0 15.6 15.2 95 0.5 S 11 20 6 11 1022.9 - 0.0
27/05:00am 14.7 14.8 13.9 95 0.4 SW 6 9 3 5 1022.7 - 0.0
27/04:30am 15.0 15.0 14.2 95 0.5 SW 7 11 4 6 1022.7 - 0.0
27/04:00am 15.4 16.6 14.8 96 0.3 SW 2 7 1 4 1022.6 - 0.0
27/03:30am 15.1 15.3 14.3 95 0.5 SW 6 7 3 4 1022.9 - 0.0
27/03:00am 15.2 14.9 14.4 95 0.5 SW 9 13 5 7 1023.2 1023.2 0.0
27/02:30am 15.0 14.3 14.2 95 0.5 WSW 11 13 6 7 1023.4 - 0.0
27/02:00am 14.8 14.8 13.7 93 0.6 SW 6 7 3 4 1023.2 - 0.0
27/01:30am 15.4 16.0 14.3 93 0.6 SW 4 6 2 3 1023.4 - 0.0
27/01:00am 16.1 16.4 15.1 94 0.6 SW 7 11 4 6 1023.7 - 0.0
27/12:30am 16.4 16.1 15.4 94 0.6 SW 11 13 6 7 1023.9 - 0.0
27/12:00am 16.5 16.2 15.5 94 0.6 SW 11 15 6 8 1024.1 1024.1 0.0
 
Date/Time
EST
Tmp

°C
App
Tmp
°C
Dew
Point
°C
Rel
Hum
%
Delta-T

°C
Wind Press
QNH
hPa
Press
MSL
hPa
Rain
since
9 am
mm
Dir
 
Spd
km/h
Gust
km/h
Spd
kts
Gust
kts
26/11:30pm 16.6 16.7 15.6 94 0.6 SW 9 11 5 6 1024.1 - 0.0
26/11:00pm 16.7 16.5 15.7 94 0.6 SW 11 13 6 7 1024.4 - 0.0
26/10:30pm 16.6 16.4 15.6 94 0.6 WSW 11 13 6 7 1024.9 - 0.0
26/10:00pm 16.7 16.8 15.4 92 0.8 SW 9 13 5 7 1024.9 - 0.0
26/09:30pm 17.3 17.4 15.6 90 1.0 WSW 9 11 5 6 1024.9 - 0.0
26/09:00pm 17.6 17.8 15.8 89 1.1 S 9 13 5 7 1024.7 1024.7 0.0
26/08:30pm 17.7 17.8 15.5 87 1.3 SSW 9 13 5 7 1025.0 - 0.0

Latest Capital City Observations: Canberra | Sydney | Melbourne | Brisbane | Adelaide | Perth | Hobart | Darwin

Other Formats:

Comma delimited format used in spreadsheet applications
http://www.bom.gov.au/fwo/IDQ60901/IDQ60901.94569.axf

JavaScript Object Notation format (JSON) in row-major order
http://www.bom.gov.au/fwo/IDQ60901/IDQ60901.94569.json